Time;durP1;ratioP1;P1;durP2;ratioP2;P2;SDS_P1;SDS_P2;PMS_P1;PMS_P2;Temp;Humidity;BMP_temperature;BMP_pressure;BME280_temperature;BME280_humidity;BME280_pressure;Samples;Min_cycle;Max_cycle;Signal;HPM_P1;HPM_P2
2022/10/08 00:00:54;;;;;;;2.78;2.50;;;17.50;99.90;;;;;;5007731;28;20037;-83
2022/10/08 00:03:22;;;;;;;2.75;2.55;;;17.30;99.90;;;;;;5029228;28;20096;-82
2022/10/08 00:05:59;;;;;;;3.17;2.92;;;17.40;99.90;;;;;;5028753;28;20105;-82
2022/10/08 00:08:27;;;;;;;2.92;2.38;;;17.40;99.90;;;;;;5014235;28;20018;-83
2022/10/08 00:10:57;;;;;;;2.42;2.22;;;17.40;99.90;;;;;;5012877;28;20104;-83
2022/10/08 00:13:24;;;;;;;2.97;2.78;;;17.40;99.90;;;;;;5012848;28;20018;-83
2022/10/08 00:15:50;;;;;;;2.72;2.50;;;17.30;99.90;;;;;;5012568;28;20029;-82
2022/10/08 00:18:16;;;;;;;2.88;2.67;;;17.20;99.90;;;;;;5012168;28;20232;-82
2022/10/08 00:20:42;;;;;;;2.75;2.53;;;17.30;99.90;;;;;;5012615;28;20055;-83
2022/10/08 00:23:08;;;;;;;2.83;2.50;;;17.20;99.90;;;;;;5012409;28;20053;-83
2022/10/08 00:25:39;;;;;;;3.10;2.80;;;17.30;99.90;;;;;;5012385;28;20037;-83
2022/10/08 00:28:04;;;;;;;2.70;2.50;;;17.40;99.90;;;;;;5012280;28;20096;-83
2022/10/08 00:30:30;;;;;;;2.50;2.30;;;17.30;99.90;;;;;;5012504;28;20114;-83
2022/10/08 00:32:57;;;;;;;2.80;2.60;;;17.20;99.90;;;;;;5012151;28;20026;-83
2022/10/08 00:35:22;;;;;;;4.18;3.22;;;17.30;99.90;;;;;;5012011;28;20080;-82
2022/10/08 00:37:48;;;;;;;2.90;2.70;;;17.20;99.90;;;;;;5008281;28;20022;-83
2022/10/08 00:40:14;;;;;;;2.70;2.50;;;17.30;99.90;;;;;;5012308;28;20041;-82
2022/10/08 00:42:40;;;;;;;3.22;2.92;;;17.20;99.90;;;;;;5010527;28;20264;-82
2022/10/08 00:45:11;;;;;;;2.55;2.35;;;17.20;99.90;;;;;;5012251;28;20556;-82
2022/10/08 00:47:45;;;;;;;2.70;2.50;;;17.30;99.90;;;;;;5011886;28;20109;-83
2022/10/08 00:50:18;;;;;;;3.00;2.80;;;17.20;99.90;;;;;;5010476;28;20022;-82
2022/10/08 00:53:00;;;;;;;3.10;2.90;;;17.20;99.90;;;;;;5027004;28;20034;-82
2022/10/08 00:55:27;;;;;;;2.90;2.63;;;17.10;99.90;;;;;;5011530;28;20021;-82
2022/10/08 00:57:54;;;;;;;3.45;3.17;;;17.20;99.90;;;;;;5027167;28;20029;-82
2022/10/08 01:00:24;;;;;;;2.90;2.60;;;17.20;99.90;;;;;;5005518;28;20018;-83
2022/10/08 01:02:50;;;;;;;2.80;2.60;;;17.20;99.90;;;;;;5011808;28;20087;-82
2022/10/08 01:05:21;;;;;;;3.20;2.90;;;17.30;99.90;;;;;;5011428;28;20057;-82
2022/10/08 01:07:53;;;;;;;2.90;2.63;;;17.20;99.90;;;;;;5011901;28;20076;-83
2022/10/08 01:10:45;;;;;;;5.88;3.10;;;17.30;99.90;;;;;;5012074;28;20022;-82
2022/10/08 01:13:29;;;;;;;3.13;2.88;;;17.20;99.90;;;;;;5011340;28;20088;-83
2022/10/08 01:16:10;;;;;;;3.20;3.00;;;17.20;99.90;;;;;;5011713;28;20022;-83
2022/10/08 01:18:49;;;;;;;;;;;17.20;99.90;;;;;;5026244;28;20113;-83
2022/10/08 01:21:31;;;;;;;2.97;2.72;;;17.20;99.90;;;;;;5011582;28;19918;-82
2022/10/08 01:24:13;;;;;;;3.40;3.10;;;17.10;99.90;;;;;;5011492;28;20080;-82
2022/10/08 01:26:53;;;;;;;3.92;2.88;;;16.90;99.90;;;;;;5011086;28;20030;-83
2022/10/08 01:29:22;;;;;;;2.88;2.67;;;16.90;99.90;;;;;;5011440;28;20088;-82
2022/10/08 01:31:55;;;;;;;2.97;2.78;;;16.80;99.90;;;;;;5011273;28;20030;-82
2022/10/08 01:34:43;;;;;;;3.10;2.80;;;16.70;99.90;;;;;;5026620;28;20045;-83
2022/10/08 01:37:16;;;;;;;3.05;2.85;;;16.70;99.90;;;;;;5006908;28;20023;-83
2022/10/08 01:39:46;;;;;;;2.63;2.40;;;16.80;99.90;;;;;;5011806;28;20030;-83
2022/10/08 01:42:12;;;;;;;3.45;3.00;;;16.90;99.90;;;;;;5025777;28;20040;-82
2022/10/08 01:44:46;;;;;;;3.03;2.80;;;16.80;99.90;;;;;;5009853;28;20109;-83
2022/10/08 01:47:16;;;;;;;3.05;2.83;;;16.70;99.90;;;;;;5010614;28;20018;-83
2022/10/08 01:49:48;;;;;;;3.63;3.30;;;16.70;99.90;;;;;;5011269;28;20022;-82
2022/10/08 01:52:22;;;;;;;3.40;2.75;;;16.60;99.90;;;;;;5010136;28;20046;-83
2022/10/08 01:54:50;;;;;;;3.10;2.80;;;16.60;99.90;;;;;;5026133;28;20033;-83
2022/10/08 01:57:17;;;;;;;3.10;2.90;;;16.60;99.90;;;;;;5010897;28;20362;-83
2022/10/08 01:59:53;;;;;;;4.90;3.15;;;16.60;99.90;;;;;;5004321;28;20023;-83
2022/10/08 02:02:22;;;;;;;4.10;3.33;;;16.60;99.90;;;;;;5011114;28;20030;-83
2022/10/08 02:04:50;;;;;;;2.78;2.58;;;16.70;99.90;;;;;;5010786;28;20033;-83
2022/10/08 02:07:18;;;;;;;2.83;2.63;;;16.70;99.90;;;;;;5010912;28;20029;-83
2022/10/08 02:09:51;;;;;;;3.20;2.90;;;16.60;99.90;;;;;;5026231;28;20101;-83
2022/10/08 02:12:18;;;;;;;3.53;3.22;;;16.50;99.90;;;;;;5010497;28;20033;-83
2022/10/08 02:14:48;;;;;;;3.30;2.97;;;16.60;99.90;;;;;;5009338;28;20594;-83
2022/10/08 02:17:41;;;;;;;3.70;3.40;;;16.60;99.90;;;;;;5025799;28;20037;-83
2022/10/08 02:20:13;;;;;;;3.92;3.35;;;16.80;99.90;;;;;;5010738;28;20108;-83
2022/10/08 02:22:46;;;;;;;3.10;2.80;;;16.80;99.90;;;;;;5010602;28;20133;-83
2022/10/08 02:25:38;;;;;;;3.35;3.05;;;16.60;99.90;;;;;;5010968;28;20053;-83
2022/10/08 02:28:12;;;;;;;3.55;3.25;;;16.60;99.90;;;;;;5011293;28;20541;-83
2022/10/08 02:31:04;;;;;;;3.05;2.85;;;16.60;99.90;;;;;;5014306;28;20545;-82
2022/10/08 02:33:36;;;;;;;3.17;2.88;;;16.60;99.90;;;;;;5015077;28;20042;-83
2022/10/08 02:36:07;;;;;;;3.28;3.03;;;16.50;99.90;;;;;;5014275;28;20022;-83
2022/10/08 02:38:41;;;;;;;3.03;2.83;;;16.40;99.90;;;;;;5025456;28;20050;-82
2022/10/08 02:41:10;;;;;;;2.97;2.78;;;16.50;99.90;;;;;;5011858;28;20061;-83
2022/10/08 02:43:43;;;;;;;2.83;2.63;;;16.60;99.90;;;;;;5014062;28;20022;-83
2022/10/08 02:46:16;;;;;;;3.20;3.00;;;16.70;99.90;;;;;;5013907;28;20026;-83
2022/10/08 02:48:55;;;;;;;3.10;2.90;;;16.60;99.90;;;;;;5029521;28;20049;-83
2022/10/08 02:51:21;;;;;;;3.78;3.47;;;16.50;99.90;;;;;;5014154;28;20588;-83
2022/10/08 02:53:48;;;;;;;3.35;3.05;;;16.50;99.90;;;;;;5013394;28;20048;-83
2022/10/08 02:56:23;;;;;;;3.15;2.95;;;16.50;99.90;;;;;;5029236;28;20112;-83
2022/10/08 02:58:49;;;;;;;3.47;2.88;;;16.50;99.90;;;;;;5013520;28;20060;-83
2022/10/08 03:01:38;;;;;;;3.17;2.97;;;16.60;99.90;;;;;;5007095;28;20424;-82
2022/10/08 03:04:18;;;;;;;3.58;3.22;;;16.50;99.90;;;;;;5012396;28;20037;-83
2022/10/08 03:06:47;;;;;;;3.08;2.88;;;16.40;99.90;;;;;;5013640;28;20022;-83
2022/10/08 03:09:15;;;;;;;2.92;2.72;;;16.40;99.90;;;;;;5029131;28;20521;-83
2022/10/08 03:11:41;;;;;;;4.07;2.85;;;16.40;99.90;;;;;;5013666;28;20014;-82
2022/10/08 03:14:11;;;;;;;3.33;3.00;;;16.40;99.90;;;;;;5013438;28;20510;-82
2022/10/08 03:16:45;;;;;;;3.30;3.00;;;16.20;99.90;;;;;;5013506;28;20030;-82
2022/10/08 03:19:16;;;;;;;3.65;3.35;;;16.10;99.90;;;;;;5013611;28;20042;-82
2022/10/08 03:21:44;;;;;;;4.45;3.58;;;16.20;99.90;;;;;;5013798;28;20041;-82
2022/10/08 03:24:11;;;;;;;3.83;3.53;;;16.20;99.90;;;;;;5013575;28;20095;-82
2022/10/08 03:26:37;;;;;;;3.75;3.45;;;16.20;99.90;;;;;;5028749;28;20046;-83
2022/10/08 03:29:04;;;;;;;6.40;4.03;;;16.30;99.90;;;;;;5013455;28;20492;-82
2022/10/08 03:31:30;;;;;;;8.63;5.22;;;16.30;99.90;;;;;;5013279;28;20030;-83
2022/10/08 03:33:56;;;;;;;6.38;5.18;;;16.20;99.90;;;;;;5013504;28;20022;-82
2022/10/08 03:36:23;;;;;;;5.65;4.65;;;16.30;99.90;;;;;;5013506;28;20088;-82
2022/10/08 03:38:50;;;;;;;6.03;5.43;;;16.20;99.90;;;;;;5009390;28;20053;-82
2022/10/08 03:41:16;;;;;;;6.55;5.45;;;16.30;99.90;;;;;;5011851;28;20049;-82
2022/10/08 03:43:42;;;;;;;5.35;4.85;;;16.30;99.90;;;;;;5013306;28;20022;-83
2022/10/08 03:46:10;;;;;;;6.60;5.70;;;16.30;99.90;;;;;;5013195;28;20026;-83
2022/10/08 03:48:36;;;;;;;5.47;4.82;;;16.30;99.90;;;;;;5013137;28;20116;-82
2022/10/08 03:51:06;;;;;;;5.38;4.63;;;16.40;99.90;;;;;;5013461;28;20104;-82
2022/10/08 03:53:34;;;;;;;7.00;5.50;;;16.40;99.90;;;;;;5013196;28;20045;-82
2022/10/08 03:56:05;;;;;;;6.75;5.35;;;16.30;99.90;;;;;;5012707;28;20021;-83
2022/10/08 03:58:31;;;;;;;9.23;6.75;;;16.30;99.90;;;;;;5012951;28;20053;-84
2022/10/08 04:01:02;;;;;;;9.60;6.60;;;16.20;99.90;;;;;;5006176;28;20069;-83
2022/10/08 04:03:29;;;;;;;14.10;7.95;;;16.10;99.90;;;;;;5027947;28;20099;-84
2022/10/08 04:05:55;;;;;;;11.68;8.65;;;16.00;99.90;;;;;;5012713;28;20030;-81
2022/10/08 04:08:20;;;;;;;10.23;9.07;;;16.00;99.90;;;;;;5013041;28;20048;-82
2022/10/08 04:10:46;;;;;;;11.63;9.63;;;15.90;99.90;;;;;;5012260;28;20026;-82
2022/10/08 04:13:13;;;;;;;13.38;10.02;;;16.00;99.90;;;;;;5027877;28;20033;-82
2022/10/08 04:15:39;;;;;;;13.07;9.65;;;16.00;99.90;;;;;;5027803;28;20076;-82
2022/10/08 04:18:06;;;;;;;15.38;10.18;;;15.90;99.90;;;;;;5012419;28;20038;-82
2022/10/08 04:20:32;;;;;;;12.48;10.02;;;15.90;99.90;;;;;;5012679;28;20034;-82
2022/10/08 04:22:58;;;;;;;15.23;9.82;;;16.00;99.90;;;;;;5012237;28;20056;-81
2022/10/08 04:25:24;;;;;;;15.07;10.27;;;16.10;99.90;;;;;;5011812;28;20571;-82
2022/10/08 04:27:49;;;;;;;15.88;10.57;;;16.00;99.90;;;;;;5012688;28;20476;-82
2022/10/08 04:30:16;;;;;;;13.23;10.05;;;16.00;99.90;;;;;;5027538;28;20080;-82
2022/10/08 04:32:42;;;;;;;16.98;11.35;;;16.00;99.90;;;;;;5012171;28;20076;-82
2022/10/08 04:35:08;;;;;;;15.23;10.75;;;16.00;99.90;;;;;;5012547;28;20033;-82
2022/10/08 04:37:34;;;;;;;13.60;9.77;;;16.10;99.90;;;;;;5007886;28;20377;-82
2022/10/08 04:39:59;;;;;;;9.88;8.27;;;16.20;99.90;;;;;;5012782;28;20171;-82
2022/10/08 04:42:25;;;;;;;12.18;8.23;;;16.30;99.90;;;;;;5011787;28;20487;-82
2022/10/08 04:44:51;;;;;;;11.88;9.05;;;16.20;99.90;;;;;;5012009;28;20479;-83
2022/10/08 04:47:17;;;;;;;11.25;9.45;;;16.10;99.90;;;;;;5010668;28;20090;-83
2022/10/08 04:49:42;;;;;;;10.77;8.65;;;16.10;99.90;;;;;;5012149;28;20021;-82
2022/10/08 04:52:08;;;;;;;9.70;8.63;;;16.20;99.90;;;;;;5010513;28;20097;-82
2022/10/08 04:54:34;;;;;;;10.50;8.23;;;16.20;99.90;;;;;;5011760;28;20053;-82
2022/10/08 04:57:00;;;;;;;11.70;8.68;;;16.40;99.90;;;;;;5012479;28;20061;-81
2022/10/08 04:59:26;;;;;;;9.70;7.82;;;16.50;99.90;;;;;;5006647;28;20505;-82
2022/10/08 05:01:55;;;;;;;9.35;7.40;;;16.40;99.90;;;;;;5009773;28;20030;-82
2022/10/08 05:04:22;;;;;;;9.98;7.03;;;16.50;99.90;;;;;;5011965;28;20037;-82
2022/10/08 05:06:47;;;;;;;8.80;7.13;;;16.40;99.90;;;;;;5011822;28;20030;-81
2022/10/08 05:09:13;;;;;;;9.05;7.68;;;16.50;99.90;;;;;;5011557;28;20503;-82
2022/10/08 05:11:39;;;;;;;7.85;6.70;;;16.60;99.90;;;;;;5011069;28;20026;-82
2022/10/08 05:14:05;;;;;;;9.07;7.13;;;16.60;99.90;;;;;;5011571;28;20053;-83
2022/10/08 05:16:31;;;;;;;13.20;8.48;;;16.50;99.90;;;;;;5011436;28;20033;-82
2022/10/08 05:18:56;;;;;;;11.27;8.55;;;16.40;99.90;;;;;;5011841;28;20029;-82
2022/10/08 05:21:25;;;;;;;15.82;9.35;;;16.30;99.90;;;;;;5011246;28;20058;-82
2022/10/08 05:23:59;;;;;;;17.50;10.45;;;16.30;99.90;;;;;;5011320;28;20042;-82
2022/10/08 05:26:28;;;;;;;14.05;10.63;;;16.30;99.90;;;;;;5011445;28;20033;-82
2022/10/08 05:28:56;;;;;;;13.88;10.80;;;16.30;99.90;;;;;;5011564;28;20030;-82
2022/10/08 05:31:23;;;;;;;12.20;9.10;;;16.30;99.90;;;;;;5011729;28;20052;-82
2022/10/08 05:33:49;;;;;;;10.27;8.93;;;16.40;99.90;;;;;;5011548;28;20022;-82
2022/10/08 05:36:24;;;;;;;11.60;9.05;;;16.40;99.90;;;;;;5011642;28;20034;-82
2022/10/08 05:38:49;;;;;;;13.10;9.10;;;16.40;99.90;;;;;;5022567;28;20345;-82
2022/10/08 05:41:23;;;;;;;11.25;8.32;;;16.40;99.90;;;;;;5010662;28;20102;-82
2022/10/08 05:43:49;;;;;;;12.70;8.82;;;16.40;99.90;;;;;;5026419;28;20052;-82
2022/10/08 05:46:16;;;;;;;9.82;8.63;;;16.40;99.90;;;;;;5009860;28;20119;-82
2022/10/08 05:48:42;;;;;;;13.45;10.10;;;16.50;99.90;;;;;;5009617;28;20026;-82
2022/10/08 05:51:11;;;;;;;13.20;9.35;;;16.40;99.90;;;;;;5011134;28;20053;-82
2022/10/08 05:53:39;;;;;;;13.98;9.23;;;16.40;99.90;;;;;;5026003;28;20052;-82
2022/10/08 05:56:07;;;;;;;11.35;7.95;;;16.40;99.90;;;;;;5026350;28;20654;-82
2022/10/08 05:58:35;;;;;;;10.40;8.18;;;16.50;99.90;;;;;;5011198;28;20092;-82
2022/10/08 06:01:03;;;;;;;9.75;7.70;;;16.50;99.90;;;;;;5019658;28;20389;-82
2022/10/08 06:03:29;;;;;;;10.98;8.38;;;16.50;99.90;;;;;;5011211;28;20022;-82
2022/10/08 06:06:04;;;;;;;9.20;6.80;;;16.50;99.90;;;;;;5015361;28;20028;-82
2022/10/08 06:08:30;;;;;;;10.52;7.30;;;16.50;99.90;;;;;;5030236;28;20091;-82
2022/10/08 06:10:56;;;;;;;7.68;6.95;;;16.50;99.90;;;;;;5014847;28;20029;-82
2022/10/08 06:13:22;;;;;;;10.25;7.93;;;16.50;99.90;;;;;;5030227;28;20026;-82
2022/10/08 06:16:00;;;;;;;8.02;7.00;;;16.50;99.90;;;;;;5013639;28;20057;-82
2022/10/08 06:18:29;;;;;;;11.18;7.10;;;16.40;99.90;;;;;;5015083;28;20026;-82
2022/10/08 06:20:55;;;;;;;8.48;6.70;;;16.50;99.90;;;;;;5013053;28;20084;-82
2022/10/08 06:23:23;;;;;;;7.53;6.68;;;16.50;99.90;;;;;;5030125;28;20459;-82
2022/10/08 06:25:49;;;;;;;7.05;6.05;;;16.60;99.90;;;;;;5014857;28;20042;-82
2022/10/08 06:28:15;;;;;;;8.18;6.32;;;16.60;99.90;;;;;;5030244;28;20144;-82
2022/10/08 06:30:41;;;;;;;6.43;5.82;;;16.60;99.90;;;;;;5014527;28;20072;-81
2022/10/08 06:33:08;;;;;;;8.18;5.85;;;16.60;99.90;;;;;;5014606;28;20026;-81
2022/10/08 06:35:34;;;;;;;8.45;6.40;;;16.60;99.90;;;;;;5014333;28;20550;-82
2022/10/08 06:38:00;;;;;;;7.25;5.93;;;16.60;99.90;;;;;;5010629;28;20495;-83
2022/10/08 06:40:25;;;;;;;5.85;5.07;;;16.60;99.90;;;;;;5014664;28;20026;-82
2022/10/08 06:42:51;;;;;;;6.82;5.80;;;16.70;99.90;;;;;;5014246;28;20038;-82
2022/10/08 06:45:17;;;;;;;7.88;5.90;;;16.70;99.90;;;;;;5014071;28;20018;-83
2022/10/08 06:47:43;;;;;;;8.05;6.25;;;16.60;99.90;;;;;;5014150;28;20476;-82
2022/10/08 06:50:09;;;;;;;7.88;6.25;;;16.70;99.90;;;;;;5013672;28;20511;-83
2022/10/08 06:52:34;;;;;;;8.90;6.68;;;16.70;99.90;;;;;;5012894;28;20154;-82
2022/10/08 06:55:00;;;;;;;7.47;6.18;;;16.80;99.90;;;;;;5013372;28;20026;-82
2022/10/08 06:57:26;;;;;;;7.07;6.05;;;16.80;99.90;;;;;;5012435;28;20531;-83
2022/10/08 06:59:53;;;;;;;7.70;6.85;;;16.80;99.90;;;;;;5012755;28;20487;-82
2022/10/08 07:02:19;;;;;;;8.18;7.05;;;16.80;99.90;;;;;;5012667;28;20492;-82
2022/10/08 07:04:45;;;;;;;8.48;7.57;;;16.80;99.90;;;;;;5012769;28;20104;-82
2022/10/08 07:07:11;;;;;;;9.07;7.25;;;16.80;99.90;;;;;;5013399;28;20514;-83
2022/10/08 07:09:36;;;;;;;10.70;7.15;;;16.80;99.90;;;;;;5014079;28;20069;-82
2022/10/08 07:12:02;;;;;;;8.32;6.80;;;16.90;99.90;;;;;;5012925;28;20030;-82
2022/10/08 07:14:28;;;;;;;10.25;7.85;;;16.90;99.90;;;;;;5028041;28;20030;-82
2022/10/08 07:16:54;;;;;;;11.50;8.80;;;17.00;99.90;;;;;;5013516;28;20036;-82
2022/10/08 07:19:19;;;;;;;12.48;8.85;;;17.00;99.90;;;;;;5012733;28;20147;-82
2022/10/08 07:21:45;;;;;;;11.98;8.75;;;17.00;99.90;;;;;;5010772;28;20048;-83
2022/10/08 07:24:11;;;;;;;9.60;8.65;;;17.00;99.90;;;;;;5012876;28;20033;-82
2022/10/08 07:26:36;;;;;;;11.32;9.18;;;17.00;99.90;;;;;;5012732;28;20506;-82
2022/10/08 07:29:05;;;;;;;11.88;9.90;;;17.00;99.90;;;;;;5013255;28;20018;-82
2022/10/08 07:31:34;;;;;;;10.98;9.77;;;17.00;99.90;;;;;;5014706;28;20026;-82
2022/10/08 07:34:02;;;;;;;11.25;9.95;;;17.10;99.90;;;;;;5028863;28;20153;-82
2022/10/08 07:36:28;;;;;;;13.48;11.25;;;17.10;99.90;;;;;;5030351;28;20113;-83
2022/10/08 07:39:02;;;;;;;13.05;10.88;;;17.10;99.90;;;;;;5013700;28;20034;-83
2022/10/08 07:41:31;;;;;;;10.88;9.77;;;17.20;99.90;;;;;;5011992;28;20192;-82
2022/10/08 07:43:58;;;;;;;11.40;10.20;;;17.20;99.90;;;;;;5010634;28;20056;-82
2022/10/08 07:46:26;;;;;;;13.85;10.20;;;17.20;99.90;;;;;;5014122;28;20108;-82
2022/10/08 07:48:55;;;;;;;12.73;9.98;;;17.30;99.90;;;;;;5012544;28;20507;-83
2022/10/08 07:51:22;;;;;;;12.30;9.95;;;17.30;99.90;;;;;;5012111;28;20029;-84
2022/10/08 07:53:48;;;;;;;13.45;11.00;;;17.30;99.90;;;;;;5015647;28;20026;-84
2022/10/08 07:56:15;;;;;;;12.05;9.85;;;17.30;99.90;;;;;;5019020;28;20026;-83
2022/10/08 07:58:42;;;;;;;10.98;9.02;;;17.40;99.90;;;;;;5012814;28;20660;-85
2022/10/08 08:01:11;;;;;;;13.65;10.00;;;17.40;99.90;;;;;;5015748;28;20064;-86
2022/10/08 08:03:37;;;;;;;14.35;10.23;;;17.40;99.90;;;;;;5012698;28;20096;-85
2022/10/08 08:06:11;;;;;;;13.68;9.88;;;17.50;99.90;;;;;;5012553;28;20480;-85
2022/10/08 08:08:39;;;;;;;11.50;10.18;;;17.40;99.90;;;;;;5013105;28;20110;-84
2022/10/08 08:11:06;;;;;;;12.57;9.65;;;17.40;99.90;;;;;;5012578;28;20072;-84
2022/10/08 08:13:34;;;;;;;12.50;9.95;;;17.40;99.90;;;;;;5027927;28;20018;-85
2022/10/08 08:16:05;;;;;;;17.27;9.82;;;17.40;99.90;;;;;;5011117;28;20026;-84
2022/10/08 08:18:32;;;;;;;11.75;9.27;;;17.50;99.90;;;;;;5027540;28;20667;-84
2022/10/08 08:21:03;;;;;;;14.00;10.25;;;17.50;99.90;;;;;;5012315;28;20029;-84
2022/10/08 08:23:38;;;;;;;18.03;11.53;;;17.60;99.90;;;;;;5017140;28;20027;-84
2022/10/08 08:26:10;;;;;;;14.40;10.45;;;17.60;99.90;;;;;;5010886;28;20394;-82
2022/10/08 08:28:36;;;;;;;14.40;10.50;;;17.70;99.90;;;;;;5010668;28;20050;-81
2022/10/08 08:31:13;;;;;;;13.00;8.88;;;17.70;99.90;;;;;;5012369;28;20458;-81
2022/10/08 08:33:40;;;;;;;14.20;9.57;;;17.80;99.90;;;;;;5012443;28;20030;-81
2022/10/08 08:36:06;;;;;;;14.95;9.55;;;17.80;99.90;;;;;;4998874;28;20030;-81
2022/10/08 08:38:36;;;;;;;11.52;8.30;;;17.80;99.90;;;;;;5023685;28;20113;-81
2022/10/08 08:41:22;;;;;;;12.95;9.38;;;17.90;99.90;;;;;;5027230;28;20025;-80
2022/10/08 08:43:47;;;;;;;11.02;8.95;;;17.90;99.90;;;;;;5011837;28;20496;-81
2022/10/08 08:46:18;;;;;;;9.57;8.50;;;17.90;99.90;;;;;;5026996;28;20035;-81
2022/10/08 08:48:45;;;;;;;12.25;8.25;;;17.90;99.90;;;;;;5008223;28;20503;-81
2022/10/08 08:51:11;;;;;;;7.90;6.97;;;17.90;99.90;;;;;;5011906;28;20057;-82
2022/10/08 08:53:37;;;;;;;11.43;7.38;;;18.00;99.90;;;;;;5026975;28;20029;-82
2022/10/08 08:56:06;;;;;;;10.30;7.35;;;18.00;99.90;;;;;;5011233;28;20052;-82
2022/10/08 08:58:39;;;;;;;8.45;6.75;;;18.00;99.90;;;;;;5026382;28;20029;-82
2022/10/08 09:01:07;;;;;;;8.27;6.75;;;18.10;99.90;;;;;;5010473;28;20022;-82
2022/10/08 09:03:48;;;;;;;8.68;7.30;;;18.10;99.90;;;;;;5007692;28;20018;-81
2022/10/08 09:06:16;;;;;;;7.88;6.95;;;18.10;99.90;;;;;;5005591;28;20056;-81
2022/10/08 09:09:03;;;;;;;10.85;6.45;;;18.10;99.90;;;;;;5025822;28;20123;-81
2022/10/08 09:11:29;;;;;;;7.18;6.38;;;18.20;99.90;;;;;;5010610;28;20049;-80
2022/10/08 09:13:58;;;;;;;8.23;6.22;;;18.30;99.90;;;;;;5011475;28;20467;-81
2022/10/08 09:16:27;;;;;;;7.10;6.25;;;18.40;99.90;;;;;;5010589;28;20041;-81
2022/10/08 09:18:52;;;;;;;6.97;6.07;;;18.60;99.90;;;;;;5026302;28;20030;-81
2022/10/08 09:21:19;;;;;;;8.02;6.00;;;18.70;99.90;;;;;;5010787;28;20264;-81
2022/10/08 09:23:45;;;;;;;7.63;5.72;;;18.80;99.90;;;;;;5026318;28;20026;-81
2022/10/08 09:26:18;;;;;;;6.50;5.90;;;19.10;99.90;;;;;;5011148;28;20034;-81
2022/10/08 09:28:52;;;;;;;12.82;6.75;;;19.20;99.90;;;;;;5025412;28;20152;-81
2022/10/08 09:31:21;;;;;;;8.98;5.80;;;19.20;99.90;;;;;;5005517;28;20029;-81
2022/10/08 09:34:04;;;;;;;8.55;6.43;;;19.20;99.90;;;;;;5011054;28;20056;-81
2022/10/08 09:36:45;;;;;;;10.77;6.80;;;19.20;99.90;;;;;;5008207;28;20029;-80
2022/10/08 09:39:23;;;;;;;6.82;6.07;;;19.10;99.90;;;;;;5009605;28;20045;-80
2022/10/08 09:42:13;;;;;;;11.73;6.85;;;19.20;99.90;;;;;;5009628;28;20030;-81
2022/10/08 09:44:57;;;;;;;8.98;6.85;;;19.10;99.90;;;;;;5012503;28;20045;-81
2022/10/08 09:47:24;;;;;;;10.95;6.55;;;19.30;99.90;;;;;;5025755;28;20022;-81
2022/10/08 09:50:17;;;;;;;8.27;6.50;;;19.50;99.90;;;;;;5025387;28;20510;-81
2022/10/08 09:52:45;;;;;;;7.45;6.55;;;19.60;99.90;;;;;;5001623;28;20018;-81
2022/10/08 09:55:21;;;;;;;8.43;6.25;;;19.50;99.90;;;;;;5010423;28;20022;-81
2022/10/08 09:57:53;;;;;;;10.23;6.47;;;19.40;99.90;;;;;;5025993;28;20053;-82
2022/10/08 10:00:28;;;;;;;10.68;7.22;;;19.40;99.90;;;;;;5010035;28;20026;-82
2022/10/08 10:02:55;;;;;;;6.82;6.13;;;19.40;99.90;;;;;;5026167;28;20029;-83
2022/10/08 10:05:27;;;;;;;8.55;6.35;;;19.60;99.90;;;;;;5010000;28;20030;-83
2022/10/08 10:07:53;;;;;;;8.65;5.57;;;19.70;99.90;;;;;;5025977;28;20104;-83
2022/10/08 10:10:26;;;;;;;12.20;6.78;;;19.60;99.90;;;;;;5009888;28;20026;-84
2022/10/08 10:13:03;;;;;;;9.32;6.50;;;19.50;99.90;;;;;;5010173;28;20076;-83
2022/10/08 10:15:38;;;;;;;8.57;6.38;;;19.70;99.90;;;;;;5010382;28;20561;-82
2022/10/08 10:18:17;;;;;;;14.27;7.68;;;19.80;99.90;;;;;;5010644;28;20022;-84
2022/10/08 10:20:49;;;;;;;8.77;6.80;;;19.80;99.90;;;;;;5003734;28;20213;-81
2022/10/08 10:24:07;;;;;;;10.02;6.88;;;19.90;99.90;;;;;;5013206;28;20042;-81
2022/10/08 10:26:37;;;;;;;11.55;6.85;;;19.80;99.90;;;;;;5027643;28;20045;-78
2022/10/08 10:29:17;;;;;;;7.97;5.93;;;19.80;99.90;;;;;;5025617;28;20040;-79
2022/10/08 10:32:07;;;;;;;7.20;6.45;;;19.80;99.90;;;;;;5027374;28;20057;-79
2022/10/08 10:34:37;;;;;;;7.55;5.82;;;19.90;99.90;;;;;;5027048;28;20120;-79
2022/10/08 10:37:14;;;;;;;8.00;5.63;;;19.90;99.90;;;;;;5005765;28;20034;-79
2022/10/08 10:39:49;;;;;;;5.90;5.38;;;19.90;99.90;;;;;;5040450;28;20534;-79
2022/10/08 10:42:23;;;;;;;7.93;4.95;;;20.00;99.90;;;;;;5026472;28;20041;-79
2022/10/08 10:44:52;;;;;;;7.45;5.07;;;19.90;99.90;;;;;;5027789;28;20037;-79
2022/10/08 10:47:24;;;;;;;7.95;5.53;;;19.80;99.90;;;;;;5027506;28;20029;-79
2022/10/08 10:49:50;;;;;;;5.97;5.28;;;19.90;99.90;;;;;;5010395;28;20597;-78
2022/10/08 10:52:36;;;;;;;6.50;5.32;;;19.80;99.90;;;;;;5012943;28;20549;-78
2022/10/08 10:55:22;;;;;;;9.18;5.97;;;19.80;99.90;;;;;;5031267;28;20043;-79
2022/10/08 10:58:04;;;;;;;8.27;6.07;;;19.70;99.90;;;;;;5030173;28;20048;-79
2022/10/08 11:01:04;;;;;;;10.77;5.90;;;19.80;99.90;;;;;;5029500;28;20041;-79
2022/10/08 11:03:41;;;;;;;6.18;5.55;;;19.90;99.90;;;;;;5013669;28;20030;-79
2022/10/08 11:06:26;;;;;;;6.40;5.47;;;20.00;99.90;;;;;;5013548;28;20025;-79
2022/10/08 11:09:04;;;;;;;6.88;5.47;;;20.20;99.90;;;;;;4996130;28;20031;-78
2022/10/08 11:11:53;;;;;;;6.97;6.10;;;20.30;99.90;;;;;;5009544;28;20058;-79
2022/10/08 11:14:25;;;;;;;8.50;6.15;;;20.40;99.90;;;;;;5028679;28;20026;-79
2022/10/08 11:16:53;;;;;;;6.63;5.63;;;20.50;99.90;;;;;;5013220;28;20030;-79
2022/10/08 11:19:45;;;;;;;6.07;5.47;;;20.50;99.90;;;;;;5028020;28;20037;-79
2022/10/08 11:22:23;;;;;;;5.60;5.07;;;20.50;99.90;;;;;;5030127;28;20052;-79
2022/10/08 11:24:55;;;;;;;6.97;5.90;;;20.50;99.90;;;;;;5014105;28;20037;-80
2022/10/08 11:27:35;;;;;;;7.75;5.97;;;20.30;99.90;;;;;;5029628;28;20156;-80
2022/10/08 11:30:13;;;;;;;8.70;6.13;;;20.40;99.90;;;;;;5027568;28;20026;-79
2022/10/08 11:32:48;;;;;;;8.75;5.90;;;20.50;99.90;;;;;;5029282;28;20045;-79
2022/10/08 11:35:21;;;;;;;7.18;5.35;;;20.60;99.90;;;;;;5030618;28;20099;-79
2022/10/08 11:37:57;;;;;;;8.10;5.32;;;20.50;99.90;;;;;;5023357;28;20045;-80
2022/10/08 11:40:53;;;;;;;7.93;5.50;;;20.30;99.90;;;;;;5027942;28;20060;-79
2022/10/08 11:43:49;;;;;;;7.35;5.40;;;20.50;99.90;;;;;;5022674;28;20029;-79
2022/10/08 11:46:28;;;;;;;6.80;5.25;;;20.60;99.90;;;;;;5043041;28;20136;-79
2022/10/08 11:49:13;;;;;;;6.15;5.07;;;20.50;99.90;;;;;;5030234;28;20156;-79
2022/10/08 11:51:50;;;;;;;7.53;5.70;;;20.60;99.90;;;;;;5029827;28;20138;-80
2022/10/08 11:54:27;;;;;;;6.65;4.50;;;20.60;99.90;;;;;;5029862;28;20164;-79
2022/10/08 11:57:17;;;;;;;6.38;5.05;;;20.70;99.90;;;;;;5030084;28;20198;-79
2022/10/08 11:59:51;;;;;;;6.35;5.20;;;20.80;99.90;;;;;;5025754;28;20045;-79
2022/10/08 12:02:32;;;;;;;5.22;4.72;;;20.70;99.90;;;;;;5011424;28;20113;-79
2022/10/08 12:05:15;;;;;;;7.72;5.53;;;20.80;99.90;;;;;;5012568;28;20091;-80
2022/10/08 12:07:51;;;;;;;7.28;5.13;;;20.70;99.90;;;;;;5015715;28;20034;-79
2022/10/08 12:10:17;;;;;;;7.05;5.50;;;20.50;99.90;;;;;;5007409;28;20491;-79
2022/10/08 12:12:49;;;;;;;6.45;4.97;;;20.70;99.90;;;;;;5012042;28;20104;-79
2022/10/08 12:15:23;;;;;;;8.48;5.93;;;20.90;99.90;;;;;;5027617;28;20054;-79
2022/10/08 12:17:54;;;;;;;7.78;5.82;;;21.10;99.90;;;;;;5012286;28;20069;-80
2022/10/08 12:20:31;;;;;;;5.60;5.10;;;21.40;99.90;;;;;;5012314;28;20034;-80
2022/10/08 12:23:34;;;;;;;5.28;4.53;;;21.40;99.90;;;;;;4999163;28;20117;-79
2022/10/08 12:26:00;;;;;;;6.82;4.90;;;21.40;99.90;;;;;;5010731;28;20038;-79
2022/10/08 12:28:28;;;;;;;8.27;5.57;;;21.30;99.90;;;;;;5012111;28;20033;-80
2022/10/08 12:31:00;;;;;;;13.10;6.00;;;21.20;99.90;;;;;;5011900;28;20026;-79
2022/10/08 12:33:27;;;;;;;9.10;5.30;;;21.30;99.90;;;;;;5012220;28;20101;-79
2022/10/08 12:36:05;;;;;;;10.43;6.03;;;21.20;99.90;;;;;;5027864;28;20034;-78
2022/10/08 12:38:39;;;;;;;10.43;5.65;;;21.10;99.90;;;;;;5011134;28;20037;-79
2022/10/08 12:41:08;;;;;;;7.35;5.85;;;21.20;99.90;;;;;;4997131;28;20520;-79
2022/10/08 12:44:02;;;;;;;6.43;5.40;;;21.30;99.90;;;;;;5026489;28;20107;-78
2022/10/08 12:46:48;;;;;;;10.25;6.43;;;21.40;99.90;;;;;;5011217;28;20038;-79
2022/10/08 12:49:19;;;;;;;6.25;5.65;;;21.60;99.90;;;;;;4999212;28;20017;-78
2022/10/08 12:51:51;;;;;;;6.90;4.82;;;21.60;99.90;;;;;;5010206;28;20049;-79
2022/10/08 12:54:21;;;;;;;8.75;5.68;;;21.70;99.90;;;;;;5026492;28;20026;-79
2022/10/08 12:56:48;;;;;;;8.52;5.60;;;21.60;99.90;;;;;;5008092;28;20073;-79
2022/10/08 12:59:14;;;;;;;10.15;6.68;;;21.50;99.90;;;;;;5011354;28;20531;-80
2022/10/08 13:01:42;;;;;;;7.97;6.03;;;21.50;99.90;;;;;;5011729;28;20022;-80
2022/10/08 13:04:18;;;;;;;8.50;5.85;;;21.80;99.90;;;;;;5011575;28;20129;-80